Nuiqsut Airport Nuiqsut US
ICAO: PAQT
IATA:
Category: Medium
Scheduled Services:

Elevation: 38 ft
TransAlt. 0 ft.

Airport Communications:
ANCHORAGE CNTR:119.4
ASOS:122.5
CTAF:122.8
DEADHORSE RDO:122.5

PAQT Zoom In..

Runways:

(A) RW 05 length 4589 ft width 100 ft
---- / hdg 49

(B) RW 23 length 4589 ft width 100 ft
---- / hdg 229

Location; PAQT
Day. 14 / Time. 13.53 Zulu
* Altimeter: 29.98
* Temperature: -02° c. -28.4°f.
* Wind from: 340° Speed 05 kn.
Dewpoint: -02° c.
Visibility: 5 Statute Miles.
Clouds: Overcast 400 ft.
Conditions: Mist.

PAQT 141353Z AUTO 34005KT 5SM BR OVC004 M02/M02 A2998 RMK SLP152 T10171022 TSNO $ VIA AUTODIAL


Wind From 340°
Speed 05 kn.

 
 
jpsmedia.com for Web Design worldairports.se 2018   terms of use